Flugplatz Schönhagen

Für EDAZ sind keine METAR/TAF Berichte vorhanden.
Es werden die Flugwettermeldungen vom Flugplatz Berlin-Schönefeld International in 31 km Entfernung angezeigt.

Bericht für EDDB

vom 23.02. um 23:50 UTC

Wind 19 kt aus 290°

Sichtweite 10 km oder mehr

aufgebrochene Bewölkung in 2400 ft

Temperatur 4.0°C

Taupunkt 1.0°C

Luftfeuchtigkeit 81%

Luftdruck 1013 hPa

EDDB 232350Z 29019KT 9999 BKN024 04/01 Q1013 TEMPO 29020G35KT

Prognose für EDDB

vom 23.02. um 00:00 UTC

Zwischen 00:00 UTC und 00:00 UTC

Wind 20 kt aus 280° in Böen 35 kt

Sichtweite 10 km oder mehr

aufgebrochene Bewölkung in 2500 ft


Zwischen 00:00 und 00:00 UTC übergehend zu

Wind 15 kt aus 260° in Böen 25 kt

Sichtweite 10 km oder mehr

aufgebrochene Bewölkung in 2500 ft


Zwischen 00:00 und 00:00 UTC übergehend zu

Wind 11 kt aus 180°

Sichtweite 10 km oder mehr

aufgebrochene Bewölkung in 2500 ft


Zwischen 00:00 UTC und 00:00 UTC zeitweise

Sichtweite 4500 m

Regen


Zwischen 00:00 und 00:00 UTC übergehend zu

Wind 11 kt aus 180°

Sichtweite 10 km oder mehr

aufgebrochene Bewölkung in 1400 ft


Zwischen 00:00 UTC und 00:00 UTC zeitweise

aufgebrochene Bewölkung in 900 ft

TAF EDDB 232300Z 2400/2424 28020G35KT 9999 BKN025 BECMG 2404/2406 26015G25KT BECMG 2413/2415 18011KT TEMPO 2417/2424 4500 RA BECMG 2418/2420 BKN014 TEMPO 2420/2424 BKN009
Impressum